createdAt,value
2023-11-01T00:01:34.793Z,91256.97
2023-11-01T00:04:01.774Z,91252.50
2023-11-01T00:06:28.661Z,91251.63
2023-11-01T00:08:57.117Z,91257.50
2023-11-01T00:11:24.187Z,91247.31
2023-11-01T00:13:51.167Z,91249.78
2023-11-01T00:16:17.897Z,91238.78
2023-11-01T00:18:44.544Z,91234.41
2023-11-01T00:21:11.885Z,91233.34
2023-11-01T00:23:38.711Z,91237.22
2023-11-01T00:26:07.511Z,91245.56
2023-11-01T00:28:35.276Z,91247.63
2023-11-01T00:31:02.364Z,91245.63
2023-11-01T00:33:29.090Z,91260.38
2023-11-01T00:35:55.921Z,91267.22
2023-11-01T00:38:22.759Z,91272.00
2023-11-01T00:40:49.468Z,91272.94
2023-11-01T00:43:16.285Z,91270.22
2023-11-01T00:45:43.076Z,91274.25
2023-11-01T00:48:09.880Z,91269.91
2023-11-01T00:50:36.589Z,91287.16
2023-11-01T00:53:03.406Z,91288.66
2023-11-01T00:55:30.065Z,91282.06
2023-11-01T00:57:56.756Z,91288.13
2023-11-01T01:00:23.396Z,91294.66
2023-11-01T01:02:50.382Z,91301.66
2023-11-01T01:05:17.422Z,91287.41
2023-11-01T01:07:44.245Z,91292.91
2023-11-01T01:10:10.966Z,91280.56
2023-11-01T01:12:37.632Z,91287.44
2023-11-01T01:15:04.665Z,91286.50
2023-11-01T01:17:31.459Z,91283.16
2023-11-01T01:19:58.241Z,91292.31
2023-11-01T01:22:24.925Z,91296.28
2023-11-01T01:24:51.618Z,91283.78
2023-11-01T01:27:19.507Z,91284.03
2023-11-01T01:29:46.231Z,91286.75
2023-11-01T01:32:12.963Z,91286.34
2023-11-01T01:34:39.684Z,91276.81
2023-11-01T01:37:06.378Z,91283.75
2023-11-01T01:39:33.121Z,91295.28
2023-11-01T01:41:59.904Z,91294.63
2023-11-01T01:44:26.670Z,91288.69
2023-11-01T01:46:53.412Z,91284.94
2023-11-01T01:49:22.200Z,91296.06
2023-11-01T01:51:50.557Z,91301.78
2023-11-01T01:54:17.386Z,91307.41
2023-11-01T01:56:44.114Z,91305.94
2023-11-01T01:59:10.903Z,91299.09
2023-11-01T02:01:42.838Z,91298.19
2023-11-01T02:04:12.062Z,91299.63
2023-11-01T02:06:38.679Z,91283.56
2023-11-01T02:09:06.692Z,91282.22
2023-11-01T02:11:36.632Z,91279.72
2023-11-01T02:14:03.505Z,91276.66
2023-11-01T02:16:30.152Z,91265.81
2023-11-01T02:18:56.914Z,91265.31
2023-11-01T02:21:23.633Z,91258.25
2023-11-01T02:23:50.654Z,91256.06
2023-11-01T02:26:17.470Z,91244.38
2023-11-01T02:28:44.333Z,91257.19
2023-11-01T02:31:11.041Z,91270.84
2023-11-01T02:33:37.718Z,91265.81
2023-11-01T02:36:04.736Z,91275.19
2023-11-01T02:38:31.433Z,91275.94
2023-11-01T02:40:58.203Z,91302.97
2023-11-01T02:43:24.904Z,91297.72
2023-11-01T02:45:51.592Z,91309.38
2023-11-01T02:48:18.409Z,91316.50
2023-11-01T02:50:45.904Z,91307.31
2023-11-01T02:53:12.733Z,91314.13
2023-11-01T02:55:39.856Z,91324.34
2023-11-01T02:58:06.575Z,91322.47
2023-11-01T03:00:33.198Z,91328.44
2023-11-01T03:03:00.152Z,91335.56
2023-11-01T03:05:29.213Z,91339.25
2023-11-01T03:07:56.198Z,91349.47
2023-11-01T03:10:22.941Z,91345.53
2023-11-01T03:12:49.712Z,91341.69
2023-11-01T03:15:16.448Z,91339.66
2023-11-01T03:17:43.804Z,91338.06
2023-11-01T03:20:12.321Z,91338.31
2023-11-01T03:22:39.268Z,91331.38
2023-11-01T03:25:06.520Z,91338.72
2023-11-01T03:27:33.404Z,91341.03
2023-11-01T03:30:00.250Z,91337.69
2023-11-01T03:32:27.100Z,91346.66
2023-11-01T03:34:53.960Z,91343.06
2023-11-01T03:37:20.777Z,91356.81
2023-11-01T03:39:47.630Z,91338.06
2023-11-01T03:42:14.379Z,91335.97
2023-11-01T03:44:41.118Z,91336.41
2023-11-01T03:47:08.227Z,91343.22
2023-11-01T03:49:34.956Z,91339.88
2023-11-01T03:52:02.776Z,91349.69
2023-11-01T03:54:30.315Z,91337.13
2023-11-01T03:56:57.028Z,91339.75
2023-11-01T03:59:23.894Z,91352.00
2023-11-01T04:01:50.881Z,91348.28
2023-11-01T04:04:17.889Z,91349.91
2023-11-01T04:06:44.756Z,91352.72
2023-11-01T04:09:14.225Z,91353.91
2023-11-01T04:11:42.379Z,91351.59
2023-11-01T04:14:09.115Z,91356.22
2023-11-01T04:16:35.876Z,91355.22
2023-11-01T04:19:03.578Z,91355.31
2023-11-01T04:21:30.398Z,91357.84
2023-11-01T04:23:57.240Z,91356.75
2023-11-01T04:26:23.944Z,91357.28
2023-11-01T04:28:50.614Z,91360.34
2023-11-01T04:31:18.485Z,91357.56
2023-11-01T04:33:45.336Z,91364.25
2023-11-01T04:36:12.141Z,91364.56
2023-11-01T04:38:39.653Z,91368.78
2023-11-01T04:41:10.836Z,91373.91
2023-11-01T04:43:38.097Z,91373.44
2023-11-01T04:46:06.169Z,91373.50
2023-11-01T04:48:33.175Z,91375.38
2023-11-01T04:51:01.617Z,91369.22
2023-11-01T04:53:29.167Z,91377.19
2023-11-01T04:55:56.182Z,91382.81
2023-11-01T04:58:23.573Z,91386.06
2023-11-01T05:00:51.150Z,91380.25
2023-11-01T05:03:18.374Z,91386.88
2023-11-01T05:05:45.788Z,91382.09
2023-11-01T05:08:12.652Z,91389.84
2023-11-01T05:10:39.497Z,91386.16
2023-11-01T05:13:07.037Z,91385.03
2023-11-01T05:15:38.087Z,91394.44
2023-11-01T05:18:05.177Z,91399.91
2023-11-01T05:20:32.103Z,91408.72
2023-11-01T05:22:58.898Z,91398.34
2023-11-01T05:25:30.057Z,91402.69
2023-11-01T05:27:57.650Z,91398.84
2023-11-01T05:30:24.515Z,91402.06
2023-11-01T05:32:51.563Z,91409.19
2023-11-01T05:35:18.721Z,91408.09
2023-11-01T05:37:45.664Z,91407.97
2023-11-01T05:40:15.889Z,91418.94
2023-11-01T05:42:43.473Z,91428.97
2023-11-01T05:45:10.662Z,91418.63
2023-11-01T05:47:37.658Z,91423.25
2023-11-01T05:50:09.284Z,91431.44
2023-11-01T05:52:36.296Z,91425.28
2023-11-01T05:55:11.200Z,91425.84
2023-11-01T05:57:49.690Z,91425.22
2023-11-01T06:00:18.825Z,91432.03
2023-11-01T06:02:45.685Z,91434.53
2023-11-01T06:05:12.493Z,91431.88
2023-11-01T06:07:39.232Z,91431.72
2023-11-01T06:10:07.755Z,91435.78
2023-11-01T06:12:34.461Z,91443.34
2023-11-01T06:15:01.180Z,91435.13
2023-11-01T06:17:27.928Z,91441.44
2023-11-01T06:19:54.639Z,91442.34
2023-11-01T06:22:21.346Z,91443.91
2023-11-01T06:24:48.005Z,91440.75
2023-11-01T06:27:14.790Z,91443.84
2023-11-01T06:29:45.179Z,91436.88
2023-11-01T06:32:12.585Z,91436.19
2023-11-01T06:34:39.266Z,91446.94
2023-11-01T06:37:06.700Z,91449.88
2023-11-01T06:39:33.394Z,91451.47
2023-11-01T06:42:00.199Z,91446.88
2023-11-01T06:44:27.275Z,91448.13
2023-11-01T06:46:54.224Z,91448.09
2023-11-01T06:49:21.439Z,91450.22
2023-11-01T06:51:48.228Z,91450.34
2023-11-01T06:54:14.966Z,91454.72
2023-11-01T06:56:46.365Z,91453.31
2023-11-01T06:59:14.430Z,91450.00
2023-11-01T07:01:41.379Z,91451.75
2023-11-01T07:04:08.574Z,91454.88
2023-11-01T07:06:35.256Z,91457.56
2023-11-01T07:09:02.042Z,91454.22
2023-11-01T07:11:30.176Z,91450.03
2023-11-01T07:13:57.138Z,91457.78
2023-11-01T07:16:23.865Z,91452.44
2023-11-01T07:18:51.125Z,91462.56
2023-11-01T07:21:17.984Z,91459.47
2023-11-01T07:23:45.279Z,91466.94
2023-11-01T07:26:12.294Z,91463.25
2023-11-01T07:28:38.936Z,91470.50
2023-11-01T07:31:05.672Z,91477.53
2023-11-01T07:33:32.450Z,91477.09
2023-11-01T07:35:59.215Z,91483.38
2023-11-01T07:38:25.915Z,91485.69
2023-11-01T07:40:52.702Z,91484.34
2023-11-01T07:43:19.442Z,91472.91
2023-11-01T07:45:46.161Z,91482.41
2023-11-01T07:48:13.340Z,91488.81
2023-11-01T07:50:41.672Z,91479.97
2023-11-01T07:53:08.485Z,91484.59
2023-11-01T07:55:35.603Z,91488.66
2023-11-01T07:58:02.270Z,91492.69
2023-11-01T08:00:28.924Z,91492.06
2023-11-01T08:02:55.859Z,91493.69
2023-11-01T08:05:22.965Z,91502.34
2023-11-01T08:07:50.584Z,91501.88
2023-11-01T08:10:17.726Z,91494.47
2023-11-01T08:12:44.692Z,91502.63
2023-11-01T08:15:12.868Z,91490.38
2023-11-01T08:17:39.871Z,91502.06
2023-11-01T08:20:08.124Z,91505.34
2023-11-01T08:22:36.173Z,91510.31
2023-11-01T08:25:03.065Z,91519.81
2023-11-01T08:27:29.820Z,91517.50
2023-11-01T08:29:56.624Z,91512.09
2023-11-01T08:32:23.438Z,91512.25
2023-11-01T08:34:50.556Z,91519.59
2023-11-01T08:37:17.314Z,91519.91
2023-11-01T08:39:44.141Z,91513.22
2023-11-01T08:42:10.911Z,91521.19
2023-11-01T08:44:37.611Z,91520.16
2023-11-01T08:47:08.560Z,91524.50
2023-11-01T08:49:36.335Z,91528.97
2023-11-01T08:52:03.171Z,91526.56
2023-11-01T08:54:29.789Z,91524.69
2023-11-01T08:56:56.625Z,91516.41
2023-11-01T08:59:23.544Z,91522.97
2023-11-01T09:01:50.766Z,91530.75
2023-11-01T09:04:17.608Z,91519.47
2023-11-01T09:06:44.332Z,91526.25
2023-11-01T09:09:11.156Z,91523.22
2023-11-01T09:11:38.203Z,91524.00
2023-11-01T09:14:05.019Z,91525.44
2023-11-01T09:16:31.824Z,91523.47
2023-11-01T09:18:59.180Z,91522.19
2023-11-01T09:21:25.913Z,91525.47
2023-11-01T09:23:52.604Z,91522.47
2023-11-01T09:26:19.470Z,91517.94
2023-11-01T09:28:52.503Z,91526.84
2023-11-01T09:31:19.216Z,91510.66
2023-11-01T09:33:50.286Z,91499.91
2023-11-01T09:36:17.815Z,91510.78
2023-11-01T09:38:44.507Z,91509.31
2023-11-01T09:41:11.291Z,91515.59
2023-11-01T09:59:34.171Z,91484.03
2023-11-01T10:02:01.481Z,91488.56
2023-11-01T10:04:28.739Z,91485.63
2023-11-01T10:06:56.200Z,91483.78
2023-11-01T10:09:22.953Z,91486.50
2023-11-01T10:11:49.656Z,91480.00
2023-11-01T10:14:29.328Z,91496.25
2023-11-01T10:16:57.054Z,91483.56
2023-11-01T10:19:24.682Z,91469.41
2023-11-01T10:21:54.690Z,91476.78
2023-11-01T10:24:26.507Z,91474.84
2023-11-01T10:26:53.741Z,91472.75
2023-11-01T10:29:20.682Z,91467.56
2023-11-01T10:31:59.998Z,91463.97
2023-11-01T10:34:30.660Z,91456.97
2023-11-01T10:36:58.718Z,91449.50
2023-11-01T10:39:26.227Z,91455.53
2023-11-01T10:41:56.256Z,91456.88
2023-11-01T10:44:23.795Z,91459.34
2023-11-01T10:46:51.198Z,91460.94
2023-11-01T10:49:18.041Z,91462.00
2023-11-01T10:51:45.053Z,91449.25
2023-11-01T10:54:12.828Z,91448.13
2023-11-01T10:56:39.955Z,91437.84
2023-11-01T10:59:21.902Z,91439.53
2023-11-01T11:01:53.508Z,91451.34
2023-11-01T11:04:55.968Z,91450.28
2023-11-01T11:07:34.530Z,91445.81
2023-11-01T11:10:26.172Z,91449.44
2023-11-01T11:13:11.665Z,91430.47
2023-11-01T11:16:08.145Z,91429.81
2023-11-01T11:18:44.808Z,91444.50
2023-11-01T11:21:46.925Z,91440.31
2023-11-01T11:24:45.654Z,91433.69
2023-11-01T11:27:46.508Z,91434.38
2023-11-01T11:30:13.311Z,91434.00
2023-11-01T11:32:40.127Z,91438.53
2023-11-01T11:35:19.660Z,91435.22
2023-11-01T11:37:46.303Z,91438.84
2023-11-01T11:40:13.609Z,91437.06
2023-11-01T11:42:43.289Z,91431.50
2023-11-01T11:45:10.077Z,91421.22
2023-11-01T11:47:36.958Z,91431.44
2023-11-01T11:50:10.378Z,91428.94
2023-11-01T11:52:39.784Z,91430.13
2023-11-01T11:55:06.699Z,91426.19
2023-11-01T11:57:33.356Z,91426.38
2023-11-01T12:00:09.042Z,91425.44
2023-11-01T12:02:35.926Z,91429.34
2023-11-01T12:05:04.037Z,91430.78
2023-11-01T12:07:30.846Z,91428.84
2023-11-01T12:09:57.698Z,91426.66
2023-11-01T12:12:27.659Z,91423.00
2023-11-01T12:15:01.523Z,91421.38
2023-11-01T12:17:28.765Z,91425.09
2023-11-01T12:19:55.550Z,91427.84
2023-11-01T12:22:22.314Z,91423.56
2023-11-01T12:24:49.781Z,91425.22
2023-11-01T12:27:19.868Z,91427.47
2023-11-01T12:29:48.460Z,91427.81
2023-11-01T12:32:25.123Z,91419.53
2023-11-01T12:34:51.880Z,91419.91
2023-11-01T12:37:24.267Z,91422.94
2023-11-01T12:40:00.697Z,91424.50
2023-11-01T12:42:29.248Z,91429.34
2023-11-01T12:44:56.105Z,91422.28
2023-11-01T12:47:43.439Z,91412.34
2023-11-01T12:50:11.233Z,91414.78
2023-11-01T12:52:39.813Z,91415.88
2023-11-01T12:55:15.342Z,91414.84
2023-11-01T12:57:47.923Z,91416.41
2023-11-01T13:00:17.039Z,91409.69
2023-11-01T13:02:44.292Z,91409.84
2023-11-01T13:05:13.968Z,91412.19
2023-11-01T13:07:40.993Z,91408.16
2023-11-01T13:10:10.850Z,91407.94
2023-11-01T13:12:39.734Z,91398.47
2023-11-01T13:15:07.321Z,91386.44
2023-11-01T13:17:34.185Z,91396.97
2023-11-01T13:20:00.931Z,91391.25
2023-11-01T13:22:27.649Z,91402.72
2023-11-01T13:24:54.341Z,91389.69
2023-11-01T13:27:20.966Z,91386.22
2023-11-01T13:29:49.606Z,91390.72
2023-11-01T13:32:16.563Z,91384.69
2023-11-01T13:34:43.349Z,91396.69
2023-11-01T13:37:09.992Z,91392.38
2023-11-01T13:39:36.805Z,91388.13
2023-11-01T13:42:03.655Z,91385.97
2023-11-01T13:44:30.420Z,91377.72
2023-11-01T13:46:57.160Z,91384.94
2023-11-01T13:49:23.954Z,91390.50
2023-11-01T13:51:51.133Z,91389.06
2023-11-01T13:54:17.870Z,91394.13
2023-11-01T13:56:44.822Z,91395.84
2023-11-01T13:59:11.493Z,91396.38
2023-11-01T14:01:38.229Z,91399.16
2023-11-01T14:04:05.321Z,91396.09
2023-11-01T14:06:32.188Z,91393.13
2023-11-01T14:08:58.936Z,91396.31
2023-11-01T14:11:26.108Z,91392.16
2023-11-01T14:13:53.868Z,91395.47
2023-11-01T14:16:20.618Z,91388.69
2023-11-01T14:18:47.440Z,91391.66
2023-11-01T14:21:14.332Z,91397.81
2023-11-01T14:23:41.162Z,91392.53
2023-11-01T14:26:08.746Z,91398.56
2023-11-01T14:28:35.530Z,91386.41
2023-11-01T14:31:02.307Z,91376.28
2023-11-01T14:33:29.252Z,91377.78
2023-11-01T14:35:56.235Z,91373.91
2023-11-01T14:38:23.139Z,91378.72
2023-11-01T14:40:49.808Z,91381.56
2023-11-01T14:43:18.500Z,91386.53
2023-11-01T14:45:45.500Z,91392.94
2023-11-01T14:48:12.424Z,91390.09
2023-11-01T14:50:39.373Z,91394.19
2023-11-01T14:53:06.077Z,91394.22
2023-11-01T14:55:32.852Z,91409.19
2023-11-01T14:57:59.565Z,91398.22
2023-11-01T15:00:26.351Z,91401.81
2023-11-01T15:02:53.076Z,91391.88
2023-11-01T15:05:20.195Z,91388.13
2023-11-01T15:07:47.174Z,91384.97
2023-11-01T15:10:14.299Z,91385.66
2023-11-01T15:12:41.318Z,91387.88
2023-11-01T15:15:09.091Z,91397.41
2023-11-01T15:17:35.914Z,91407.44
2023-11-01T15:20:02.746Z,91401.81
2023-11-01T15:22:29.476Z,91405.03
2023-11-01T15:24:56.185Z,91400.00
2023-11-01T15:27:25.807Z,91397.72
2023-11-01T15:29:53.135Z,91397.13
2023-11-01T15:32:20.124Z,91403.78
2023-11-01T15:34:49.625Z,91407.31
2023-11-01T15:37:16.479Z,91411.44
2023-11-01T15:39:43.253Z,91415.28
2023-11-01T15:42:10.684Z,91411.72
2023-11-01T15:44:37.553Z,91414.38
2023-11-01T15:47:04.601Z,91412.00
2023-11-01T15:49:31.404Z,91418.03
2023-11-01T15:52:01.274Z,91427.75
2023-11-01T15:54:29.450Z,91428.97
2023-11-01T15:56:56.174Z,91430.25
2023-11-01T15:59:23.228Z,91429.38
2023-11-01T16:01:51.234Z,91436.88
2023-11-01T16:04:18.348Z,91436.56
2023-11-01T16:06:45.205Z,91431.66
2023-11-01T16:09:14.918Z,91441.16
2023-11-01T16:11:41.834Z,91433.63
2023-11-01T16:14:09.440Z,91434.00
2023-11-01T16:16:36.350Z,91439.44
2023-11-01T16:19:02.987Z,91443.84
2023-11-01T16:21:29.783Z,91447.78
2023-11-01T16:23:56.641Z,91464.50
2023-11-01T16:26:23.397Z,91467.94
2023-11-01T16:28:50.349Z,91466.91
2023-11-01T16:31:17.077Z,91472.19
2023-11-01T16:33:44.563Z,91466.28
2023-11-01T16:36:11.564Z,91461.97
2023-11-01T16:38:38.680Z,91472.75
2023-11-01T16:41:05.459Z,91476.13
2023-11-01T16:43:32.291Z,91468.25
2023-11-01T16:46:00.352Z,91476.06
2023-11-01T16:48:27.362Z,91471.81
2023-11-01T16:50:54.378Z,91468.09
2023-11-01T16:53:21.086Z,91454.72
2023-11-01T16:55:47.934Z,91466.81
2023-11-01T17:00:42.390Z,91462.59
2023-11-01T17:03:09.540Z,91464.69
2023-11-01T17:05:36.891Z,91467.41
2023-11-01T17:08:03.995Z,91456.81
2023-11-01T17:10:30.785Z,91459.16
2023-11-01T17:12:57.439Z,91460.28
2023-11-01T17:15:25.082Z,91460.28
2023-11-01T17:17:53.324Z,91455.53
2023-11-01T17:20:20.208Z,91464.56
2023-11-01T17:22:48.950Z,91464.25
2023-11-01T17:25:59.258Z,91471.50
2023-11-01T17:28:32.924Z,91475.81
2023-11-01T17:31:02.614Z,91466.91
2023-11-01T17:33:32.586Z,91464.03
2023-11-01T17:36:06.985Z,91464.84
2023-11-01T17:38:38.250Z,91450.16
2023-11-01T17:41:08.318Z,91447.53
2023-11-01T17:43:48.958Z,91456.03
2023-11-01T17:46:19.321Z,91453.72
2023-11-01T17:48:46.751Z,91450.72
2023-11-01T17:51:16.262Z,91454.50
2023-11-01T17:53:43.007Z,91461.09
2023-11-01T17:56:09.760Z,91458.06
2023-11-01T17:58:36.752Z,91448.81
2023-11-01T18:01:04.929Z,91456.13
2023-11-01T18:03:33.714Z,91450.63
2023-11-01T18:06:01.262Z,91452.41
2023-11-01T18:08:34.718Z,91443.22
2023-11-01T18:11:04.376Z,91440.19
2023-11-01T18:13:37.290Z,91450.09
2023-11-01T18:16:05.891Z,91450.69
2023-11-01T18:18:52.111Z,91452.75
2023-11-01T18:21:28.411Z,91447.28
2023-11-01T18:23:59.841Z,91448.78
2023-11-01T18:26:33.395Z,91448.19
2023-11-01T18:29:06.662Z,91443.00
2023-11-01T18:31:37.168Z,91433.97
2023-11-01T18:34:05.012Z,91435.69
2023-11-01T18:36:53.940Z,91450.91
2023-11-01T18:39:21.569Z,91452.16
2023-11-01T18:41:48.412Z,91455.13
2023-11-01T18:44:27.957Z,91449.47
2023-11-01T18:46:55.955Z,91450.25
2023-11-01T18:49:34.627Z,91455.44
2023-11-01T18:52:01.941Z,91464.63
2023-11-01T18:54:41.499Z,91463.00
2023-11-01T18:57:09.780Z,91457.03
2023-11-01T18:59:36.758Z,91455.84
2023-11-01T19:02:04.524Z,91461.88
2023-11-01T19:04:33.004Z,91450.78
2023-11-01T19:06:59.721Z,91452.81
2023-11-01T19:09:26.483Z,91447.97
2023-11-01T19:11:53.274Z,91448.34
2023-11-01T19:14:20.361Z,91445.25
2023-11-01T19:16:47.319Z,91442.72
2023-11-01T19:19:14.198Z,91445.63
2023-11-01T19:21:41.079Z,91443.53
2023-11-01T19:24:07.885Z,91448.91
2023-11-01T19:26:34.675Z,91442.72
2023-11-01T19:29:01.461Z,91452.03
2023-11-01T19:31:28.487Z,91442.97
2023-11-01T19:33:55.978Z,91445.75
2023-11-01T19:36:24.133Z,91441.53
2023-11-01T19:38:50.948Z,91456.97
2023-11-01T19:41:17.993Z,91457.88
2023-11-01T19:43:44.840Z,91454.09
2023-11-01T19:46:11.597Z,91439.47
2023-11-01T19:48:38.605Z,91438.28
2023-11-01T19:51:07.559Z,91448.66
2023-11-01T19:53:34.535Z,91446.81
2023-11-01T19:56:01.219Z,91442.56
2023-11-01T19:58:28.014Z,91437.31
2023-11-01T20:00:54.720Z,91448.63
2023-11-01T20:03:21.631Z,91434.50
2023-11-01T20:05:48.444Z,91439.34
2023-11-01T20:08:15.210Z,91438.38
2023-11-01T20:10:41.848Z,91422.50
2023-11-01T20:13:08.786Z,91418.88
2023-11-01T20:15:35.577Z,91421.63
2023-11-01T20:18:02.587Z,91427.13
2023-11-01T20:20:29.684Z,91430.25
2023-11-01T20:22:58.307Z,91432.78
2023-11-01T20:25:25.279Z,91432.66
2023-11-01T20:27:52.105Z,91420.34
2023-11-01T20:30:18.827Z,91421.06
2023-11-01T20:32:45.749Z,91421.34
2023-11-01T20:35:12.752Z,91418.03
2023-11-01T20:37:39.479Z,91418.22
2023-11-01T20:40:07.230Z,91410.91
2023-11-01T20:42:34.066Z,91412.28
2023-11-01T20:45:01.210Z,91409.31
2023-11-01T20:47:28.043Z,91405.81
2023-11-01T20:49:54.844Z,91402.84
2023-11-01T20:52:21.698Z,91390.59
2023-11-01T20:55:02.297Z,91386.84
2023-11-01T20:57:29.963Z,91393.81
2023-11-01T20:59:56.936Z,91382.75
2023-11-01T21:02:23.754Z,91375.88
2023-11-01T21:04:50.602Z,91371.44
2023-11-01T21:07:18.175Z,91376.56
2023-11-01T21:09:46.216Z,91379.47
2023-11-01T21:12:13.057Z,91384.91
2023-11-01T21:14:40.126Z,91376.94
2023-11-01T21:17:09.787Z,91374.84
2023-11-01T21:19:36.614Z,91374.25
2023-11-01T21:22:03.564Z,91383.25
2023-11-01T21:24:30.758Z,91380.44
2023-11-01T21:26:58.036Z,91386.47
2023-11-01T21:29:24.830Z,91386.81
2023-11-01T21:31:51.650Z,91384.69
2023-11-01T21:34:18.575Z,91372.00
2023-11-01T21:36:45.457Z,91362.63
2023-11-01T21:39:12.255Z,91371.94
2023-11-01T21:41:40.147Z,91383.38
2023-11-01T21:44:08.593Z,91378.69
2023-11-01T21:46:36.583Z,91375.59
2023-11-01T21:49:08.073Z,91371.72
2023-11-01T21:51:34.884Z,91363.72
2023-11-01T21:54:03.379Z,91357.41
2023-11-01T21:56:33.179Z,91357.03
2023-11-01T21:59:09.429Z,91362.25
2023-11-01T22:01:36.352Z,91361.88
2023-11-01T22:04:21.196Z,91354.78
2023-11-01T22:06:49.548Z,91358.56
2023-11-01T22:09:17.267Z,91351.28
2023-11-01T22:11:49.194Z,91362.06
2023-11-01T22:14:31.190Z,91371.84
2023-11-01T22:16:59.609Z,91348.19
2023-11-01T22:19:34.079Z,91345.78
2023-11-01T22:22:09.085Z,91345.69
2023-11-01T22:24:37.616Z,91344.34
2023-11-01T22:27:10.183Z,91339.78
2023-11-01T22:29:50.786Z,91329.97
2023-11-01T22:32:21.858Z,91338.31
2023-11-01T22:34:48.740Z,91334.16
2023-11-01T22:37:16.879Z,91337.25
2023-11-01T22:39:45.405Z,91330.28
2023-11-01T22:42:14.052Z,91327.97
2023-11-01T22:44:46.804Z,91329.34
2023-11-01T22:47:14.207Z,91322.53
2023-11-01T22:49:41.451Z,91320.69
2023-11-01T22:52:08.444Z,91305.31
2023-11-01T22:54:35.537Z,91298.56
2023-11-01T22:57:02.295Z,91309.78
2023-11-01T22:59:29.087Z,91299.91
2023-11-01T23:01:58.581Z,91293.69
2023-11-01T23:04:25.636Z,91287.88
2023-11-01T23:06:52.660Z,91283.56
2023-11-01T23:09:19.631Z,91269.88
2023-11-01T23:11:46.376Z,91267.66
2023-11-01T23:14:13.076Z,91275.97
2023-11-01T23:16:40.535Z,91269.41
2023-11-01T23:19:07.562Z,91265.22
2023-11-01T23:21:34.451Z,91260.00
2023-11-01T23:24:01.890Z,91266.53
2023-11-01T23:26:55.213Z,91252.84
2023-11-01T23:29:31.781Z,91256.91
2023-11-01T23:31:59.107Z,91252.19
2023-11-01T23:34:40.930Z,91251.22
2023-11-01T23:37:34.905Z,91255.75
2023-11-01T23:40:04.339Z,91273.38
2023-11-01T23:42:34.438Z,91255.84
2023-11-01T23:45:01.963Z,91246.06
2023-11-01T23:47:51.219Z,91251.28
2023-11-01T23:53:24.297Z,91246.53
2023-11-01T23:55:53.140Z,91248.03
2023-11-01T23:58:36.294Z,91238.41
